Time;durP1;ratioP1;P1;durP2;ratioP2;P2;SDS_P1;SDS_P2;PMS_P1;PMS_P2;Temp;Humidity;BMP_temperature;BMP_pressure;BME280_temperature;BME280_humidity;BME280_pressure;Samples;Min_cycle;Max_cycle;Signal;HPM_P1;HPM_P2
2023/09/24 00:02:10;;;;;;;9.70;6.30;;;;;;;;;;6212980;23;20027;-75
2023/09/24 00:04:36;;;;;;;9.95;6.72;;;;;;;;;;6213155;23;20015;-75
2023/09/24 00:07:03;;;;;;;8.35;7.60;;;;;;;;;;6160845;23;20012;-75
2023/09/24 00:09:29;;;;;;;14.85;6.82;;;;;;;;;;6161823;23;20015;-74
2023/09/24 00:11:56;;;;;;;7.68;6.80;;;;;;;;;;6186001;23;20012;-75
2023/09/24 00:14:23;;;;;;;6.80;6.20;;;;;;;;;;6212994;23;20016;-75
2023/09/24 00:16:49;;;;;;;8.13;6.47;;;;;;;;;;6185702;23;20023;-75
2023/09/24 00:19:15;;;;;;;10.75;6.93;;;;;;;;;;6161393;23;20020;-73
2023/09/24 00:21:41;;;;;;;16.30;6.57;;;;;;;;;;6186000;23;20051;-75
2023/09/24 00:24:07;;;;;;;9.07;5.22;;;;;;;;;;6187294;23;20012;-75
2023/09/24 00:26:33;;;;;;;7.75;5.90;;;;;;;;;;6187053;23;20017;-75
2023/09/24 00:28:59;;;;;;;17.10;6.32;;;;;;;;;;6187907;23;20016;-74
2023/09/24 00:31:26;;;;;;;7.45;6.10;;;;;;;;;;6163806;23;20043;-75
2023/09/24 00:33:52;;;;;;;7.60;4.97;;;;;;;;;;6139170;23;20012;-74
2023/09/24 00:36:19;;;;;;;7.68;4.82;;;;;;;;;;6189304;23;20047;-75
2023/09/24 00:38:45;;;;;;;12.95;6.05;;;;;;;;;;6162960;23;20015;-74
2023/09/24 00:41:13;;;;;;;9.63;5.88;;;;;;;;;;6215059;23;20025;-75
2023/09/24 00:43:39;;;;;;;11.93;6.03;;;;;;;;;;6187792;23;20485;-73
2023/09/24 00:46:06;;;;;;;6.82;5.38;;;;;;;;;;6214137;23;20362;-75
2023/09/24 00:48:33;;;;;;;10.00;5.57;;;;;;;;;;6214695;23;20008;-74
2023/09/24 00:50:59;;;;;;;6.30;5.75;;;;;;;;;;6187518;23;20032;-75
2023/09/24 00:53:26;;;;;;;7.78;5.50;;;;;;;;;;6162996;23;20008;-74
2023/09/24 00:55:52;;;;;;;11.18;5.97;;;;;;;;;;6187335;23;20453;-76
2023/09/24 00:58:18;;;;;;;8.95;5.53;;;;;;;;;;6213895;23;20020;-76
2023/09/24 01:00:46;;;;;;;14.55;5.70;;;;;;;;;;6186128;23;20070;-75
2023/09/24 01:03:13;;;;;;;7.72;5.50;;;;;;;;;;6161770;23;20518;-74
2023/09/24 01:05:39;;;;;;;9.45;5.95;;;;;;;;;;6212730;23;20048;-76
2023/09/24 01:08:05;;;;;;;10.23;5.55;;;;;;;;;;6186003;23;20008;-73
2023/09/24 01:10:32;;;;;;;12.98;6.28;;;;;;;;;;6186062;23;20023;-76
2023/09/24 01:13:04;;;;;;;8.93;5.25;;;;;;;;;;6185779;23;20469;-75
2023/09/24 01:15:31;;;;;;;11.05;5.60;;;;;;;;;;6212563;23;20009;-76
2023/09/24 01:17:57;;;;;;;10.20;5.43;;;;;;;;;;6211542;23;20599;-73
2023/09/24 01:20:24;;;;;;;8.70;5.30;;;;;;;;;;6160941;23;20028;-74
2023/09/24 01:22:51;;;;;;;11.10;5.07;;;;;;;;;;6185924;23;20476;-74
2023/09/24 01:25:20;;;;;;;10.90;5.97;;;;;;;;;;6186346;23;20013;-74
2023/09/24 01:27:46;;;;;;;12.27;5.63;;;;;;;;;;6212741;23;20020;-72
2023/09/24 01:30:15;;;;;;;7.78;5.85;;;;;;;;;;6212625;23;20071;-74
2023/09/24 01:32:41;;;;;;;17.90;7.55;;;;;;;;;;6213178;23;20013;-74
2023/09/24 01:35:08;;;;;;;9.05;5.40;;;;;;;;;;6192769;23;20008;-75
2023/09/24 01:37:35;;;;;;;6.88;5.50;;;;;;;;;;6224496;23;20090;-74
2023/09/24 01:40:12;;;;;;;6.85;5.30;;;;;;;;;;6196351;23;20008;-73
2023/09/24 01:42:39;;;;;;;6.28;5.20;;;;;;;;;;6213212;23;20024;-75
2023/09/24 01:45:08;;;;;;;7.32;5.50;;;;;;;;;;6212305;23;20013;-74
2023/09/24 01:47:36;;;;;;;10.73;5.45;;;;;;;;;;6160653;23;20024;-74
2023/09/24 01:50:06;;;;;;;5.95;5.18;;;;;;;;;;6211876;23;20009;-74
2023/09/24 01:52:34;;;;;;;7.07;5.40;;;;;;;;;;6212609;23;20016;-74
2023/09/24 01:55:00;;;;;;;7.22;5.82;;;;;;;;;;6185664;23;20017;-76
2023/09/24 01:57:26;;;;;;;11.25;5.63;;;;;;;;;;6185519;23;20015;-75
2023/09/24 01:59:52;;;;;;;11.98;6.18;;;;;;;;;;6185296;23;20047;-74
2023/09/24 02:02:18;;;;;;;9.75;6.07;;;;;;;;;;6185267;23;20083;-75
2023/09/24 02:04:44;;;;;;;11.02;5.53;;;;;;;;;;6211463;23;20448;-72
2023/09/24 02:07:12;;;;;;;6.88;5.78;;;;;;;;;;6185137;23;20103;-72
2023/09/24 02:09:38;;;;;;;12.35;5.57;;;;;;;;;;6212119;23;20488;-72
2023/09/24 06:31:32;;;;;;;7.55;5.32;;;;;;;;;;6206858;23;20023;-76
2023/09/24 06:33:58;;;;;;;10.25;5.47;;;;;;;;;;6184514;23;20013;-78
2023/09/24 06:36:24;;;;;;;11.25;5.30;;;;;;;;;;6211663;23;20016;-76
2023/09/24 06:38:51;;;;;;;11.60;6.32;;;;;;;;;;6185092;23;20100;-75
2023/09/24 06:41:17;;;;;;;10.07;5.63;;;;;;;;;;6159934;23;20024;-76
2023/09/24 06:43:43;;;;;;;6.30;5.70;;;;;;;;;;6211739;23;20032;-75
2023/09/24 06:46:09;;;;;;;5.90;4.88;;;;;;;;;;6185568;23;20074;-76
2023/09/24 06:48:36;;;;;;;7.80;6.13;;;;;;;;;;6211627;23;20349;-76
2023/09/24 06:51:06;;;;;;;5.35;4.43;;;;;;;;;;6160182;23;20043;-76
2023/09/24 06:53:33;;;;;;;20.17;5.00;;;;;;;;;;6160357;23;20012;-76
2023/09/24 06:55:59;;;;;;;8.85;5.32;;;;;;;;;;6211252;23;20508;-76
2023/09/24 06:58:25;;;;;;;7.68;4.80;;;;;;;;;;6211387;23;20012;-76
2023/09/24 07:00:51;;;;;;;9.55;4.85;;;;;;;;;;6184639;23;20028;-77
2023/09/24 07:03:16;;;;;;;15.10;5.53;;;;;;;;;;6210994;23;20016;-76
2023/09/24 07:05:43;;;;;;;7.90;5.88;;;;;;;;;;6184772;23;20100;-76
2023/09/24 07:08:09;;;;;;;15.55;5.97;;;;;;;;;;6159859;23;20075;-76
2023/09/24 07:10:35;;;;;;;6.25;5.65;;;;;;;;;;6185007;23;20019;-77
2023/09/24 07:13:03;;;;;;;9.40;5.75;;;;;;;;;;6211192;23;20021;-76
2023/09/24 07:15:29;;;;;;;7.53;5.75;;;;;;;;;;6185226;23;20059;-76
2023/09/24 07:17:55;;;;;;;6.30;5.55;;;;;;;;;;6161483;23;20365;-76
2023/09/24 07:20:21;;;;;;;7.95;5.40;;;;;;;;;;6186219;23;20009;-76
2023/09/24 07:22:47;;;;;;;11.10;5.72;;;;;;;;;;6212631;23;20024;-77
2023/09/24 07:25:13;;;;;;;10.50;5.28;;;;;;;;;;6160984;23;20013;-76
2023/09/24 07:27:40;;;;;;;7.20;5.40;;;;;;;;;;6186295;23;20020;-76
2023/09/24 07:30:08;;;;;;;7.53;6.35;;;;;;;;;;6212670;23;20011;-77
2023/09/24 07:32:34;;;;;;;9.45;5.78;;;;;;;;;;6161922;23;20028;-76
2023/09/24 07:35:00;;;;;;;9.82;5.38;;;;;;;;;;6212506;23;20067;-78
2023/09/24 07:37:26;;;;;;;10.27;5.53;;;;;;;;;;6212845;23;20013;-76
2023/09/24 07:39:53;;;;;;;13.55;6.97;;;;;;;;;;6212834;23;20024;-76
2023/09/24 07:42:19;;;;;;;12.52;6.10;;;;;;;;;;6186124;23;20124;-78
2023/09/24 07:44:46;;;;;;;8.88;6.03;;;;;;;;;;6160913;23;20036;-77
2023/09/24 07:47:12;;;;;;;12.52;5.75;;;;;;;;;;6161882;23;20016;-79
2023/09/24 07:49:38;;;;;;;6.18;5.30;;;;;;;;;;6186758;23;20092;-78
2023/09/24 07:52:04;;;;;;;10.13;5.95;;;;;;;;;;6212502;23;20016;-75
2023/09/24 07:54:30;;;;;;;12.20;5.97;;;;;;;;;;6157572;23;20023;-75
2023/09/24 07:56:56;;;;;;;8.07;5.35;;;;;;;;;;6188640;23;20039;-75
2023/09/24 07:59:23;;;;;;;7.25;6.55;;;;;;;;;;6221530;23;20008;-75
2023/09/24 08:01:49;;;;;;;10.65;6.38;;;;;;;;;;6192896;23;20020;-75
2023/09/24 08:04:15;;;;;;;12.18;6.22;;;;;;;;;;6185749;23;20063;-75
2023/09/24 08:06:42;;;;;;;8.77;5.03;;;;;;;;;;6212185;23;20022;-75
2023/09/24 08:09:08;;;;;;;11.65;6.05;;;;;;;;;;6184888;23;20012;-77
2023/09/24 08:11:35;;;;;;;6.97;6.10;;;;;;;;;;6161613;23;20078;-79
2023/09/24 08:14:02;;;;;;;9.30;5.95;;;;;;;;;;6211764;23;20016;-76
2023/09/24 08:16:28;;;;;;;13.35;6.07;;;;;;;;;;6160314;23;20087;-76
2023/09/24 08:18:54;;;;;;;8.68;5.80;;;;;;;;;;6111385;23;20012;-77
2023/09/24 08:21:20;;;;;;;6.85;5.80;;;;;;;;;;6184825;23;20017;-76
2023/09/24 08:23:48;;;;;;;10.35;5.88;;;;;;;;;;6184823;23;20099;-77
2023/09/24 08:26:14;;;;;;;8.90;5.47;;;;;;;;;;6211345;23;20024;-71
2023/09/24 08:28:40;;;;;;;11.95;5.75;;;;;;;;;;6184345;23;20043;-75
2023/09/24 08:31:11;;;;;;;10.85;6.18;;;;;;;;;;6158023;23;20369;-76
2023/09/24 08:33:37;;;;;;;11.05;6.43;;;;;;;;;;6210975;23;20377;-75
2023/09/24 08:36:09;;;;;;;12.32;6.20;;;;;;;;;;6211105;23;20012;-73
2023/09/24 08:38:35;;;;;;;9.93;6.40;;;;;;;;;;6184705;23;20468;-73
2023/09/24 08:41:01;;;;;;;6.75;6.10;;;;;;;;;;6210876;23;20024;-72
2023/09/24 08:43:29;;;;;;;13.85;6.70;;;;;;;;;;6211532;23;20046;-73
2023/09/24 08:45:55;;;;;;;11.10;5.88;;;;;;;;;;6211595;23;20012;-75
2023/09/24 08:48:21;;;;;;;10.23;6.40;;;;;;;;;;6210993;23;20015;-73
2023/09/24 08:50:47;;;;;;;12.30;5.65;;;;;;;;;;6210774;23;20454;-73
2023/09/24 08:53:15;;;;;;;9.65;5.95;;;;;;;;;;6183651;23;20104;-71
2023/09/24 08:55:43;;;;;;;8.27;6.03;;;;;;;;;;6211054;23;20091;-70
2023/09/24 08:58:10;;;;;;;15.13;6.00;;;;;;;;;;6184931;23;20395;-75
2023/09/24 09:00:37;;;;;;;9.40;5.38;;;;;;;;;;6184268;23;20016;-71
2023/09/24 09:03:03;;;;;;;12.50;5.90;;;;;;;;;;6210363;23;20012;-74
2023/09/24 09:05:30;;;;;;;9.35;5.85;;;;;;;;;;6210993;23;20020;-74
2023/09/24 09:08:01;;;;;;;9.38;5.97;;;;;;;;;;6158282;23;20369;-75
2023/09/24 09:10:27;;;;;;;6.75;5.10;;;;;;;;;;6208460;23;20059;-74
2023/09/24 09:13:08;;;;;;;10.15;5.18;;;;;;;;;;6210018;23;20013;-74
2023/09/24 09:15:35;;;;;;;8.07;5.72;;;;;;;;;;6112937;23;20019;-75
2023/09/24 09:18:02;;;;;;;11.93;5.22;;;;;;;;;;6184858;23;20020;-75
2023/09/24 09:20:38;;;;;;;6.70;4.95;;;;;;;;;;6135180;23;20020;-73
2023/09/24 09:23:04;;;;;;;10.73;5.05;;;;;;;;;;6184644;23;20027;-74
2023/09/24 09:25:30;;;;;;;12.77;4.45;;;;;;;;;;6210280;23;20012;-75
2023/09/24 09:27:56;;;;;;;13.10;5.53;;;;;;;;;;6209590;23;20016;-74
2023/09/24 09:30:22;;;;;;;11.25;5.75;;;;;;;;;;6183849;23;20575;-74
2023/09/24 09:32:49;;;;;;;9.77;4.50;;;;;;;;;;6209514;23;20401;-73
2023/09/24 09:35:16;;;;;;;6.28;4.95;;;;;;;;;;6183171;23;20016;-73
2023/09/24 09:37:43;;;;;;;11.05;4.88;;;;;;;;;;6182165;23;20012;-72
2023/09/24 09:40:09;;;;;;;6.22;4.70;;;;;;;;;;6207735;23;20013;-74
2023/09/24 09:42:38;;;;;;;11.00;4.70;;;;;;;;;;6209127;23;20020;-74
2023/09/24 09:45:08;;;;;;;8.38;4.75;;;;;;;;;;6208977;23;20012;-72
2023/09/24 09:47:37;;;;;;;8.15;4.13;;;;;;;;;;6183472;23;20021;-75
2023/09/24 09:50:04;;;;;;;6.63;4.60;;;;;;;;;;6158350;23;20009;-74
2023/09/24 09:52:31;;;;;;;8.68;4.53;;;;;;;;;;6209896;23;20634;-76
2023/09/24 09:54:57;;;;;;;5.22;4.75;;;;;;;;;;6155441;23;20107;-73
2023/09/24 09:57:24;;;;;;;13.85;5.18;;;;;;;;;;6158819;23;20013;-74
2023/09/24 09:59:50;;;;;;;9.35;4.68;;;;;;;;;;6210466;23;20008;-74
2023/09/24 10:02:16;;;;;;;11.88;4.70;;;;;;;;;;6183850;23;20020;-75
2023/09/24 10:04:42;;;;;;;11.45;4.55;;;;;;;;;;6209843;23;20013;-76
2023/09/24 10:07:08;;;;;;;9.10;4.82;;;;;;;;;;6182251;23;20020;-74
2023/09/24 10:09:34;;;;;;;8.98;4.85;;;;;;;;;;6183627;23;20074;-76
2023/09/24 10:12:06;;;;;;;10.20;4.72;;;;;;;;;;6185068;23;20017;-76
2023/09/24 10:14:38;;;;;;;8.68;4.20;;;;;;;;;;6210960;23;20008;-76
2023/09/24 10:17:17;;;;;;;12.07;4.78;;;;;;;;;;6184381;23;20497;-76
2023/09/24 10:19:47;;;;;;;6.00;4.10;;;;;;;;;;6184680;23;20004;-77
2023/09/24 10:22:32;;;;;;;4.22;3.90;;;;;;;;;;6158654;23;20059;-76
2023/09/24 10:24:58;;;;;;;10.57;4.70;;;;;;;;;;6211508;23;20027;-76
2023/09/24 10:27:29;;;;;;;4.63;4.03;;;;;;;;;;6211589;23;20013;-76
2023/09/24 10:29:56;;;;;;;10.70;4.32;;;;;;;;;;6185198;23;20019;-76
2023/09/24 10:32:22;;;;;;;7.00;4.75;;;;;;;;;;6211078;23;20158;-75
2023/09/24 10:34:51;;;;;;;8.55;4.45;;;;;;;;;;6211697;23;20009;-75
2023/09/24 10:37:18;;;;;;;9.90;4.50;;;;;;;;;;6184733;23;20024;-76
2023/09/24 10:40:00;;;;;;;8.93;5.05;;;;;;;;;;6184817;23;20048;-75
2023/09/24 10:42:26;;;;;;;9.55;4.88;;;;;;;;;;6211479;23;20368;-76
2023/09/24 10:45:10;;;;;;;7.50;4.53;;;;;;;;;;6210364;23;20004;-76
2023/09/24 10:47:40;;;;;;;7.68;4.78;;;;;;;;;;6210567;23;20353;-76
2023/09/24 10:50:09;;;;;;;8.00;4.60;;;;;;;;;;6210695;23;20480;-76
2023/09/24 10:52:51;;;;;;;7.88;4.80;;;;;;;;;;6187806;23;20024;-75
2023/09/24 10:55:18;;;;;;;7.07;4.63;;;;;;;;;;6215514;23;20158;-76
2023/09/24 10:57:45;;;;;;;9.15;4.32;;;;;;;;;;6214153;23;20146;-76
2023/09/24 11:00:18;;;;;;;8.27;4.45;;;;;;;;;;6168721;23;20027;-75
2023/09/24 11:02:44;;;;;;;12.05;4.53;;;;;;;;;;6174096;23;20020;-76
2023/09/24 11:05:10;;;;;;;8.02;4.40;;;;;;;;;;6192882;23;20035;-75
2023/09/24 11:07:36;;;;;;;15.00;4.45;;;;;;;;;;6186359;23;20012;-76
2023/09/24 11:10:03;;;;;;;5.63;4.03;;;;;;;;;;6186252;23;20013;-75
2023/09/24 11:12:30;;;;;;;6.35;4.35;;;;;;;;;;6212750;23;20016;-76
2023/09/24 11:14:56;;;;;;;5.35;4.07;;;;;;;;;;6185789;23;20013;-76
2023/09/24 11:17:23;;;;;;;8.23;4.50;;;;;;;;;;6185311;23;20430;-76
2023/09/24 11:19:49;;;;;;;8.60;4.38;;;;;;;;;;6161170;23;20066;-76
2023/09/24 11:22:16;;;;;;;10.50;3.97;;;;;;;;;;6184712;23;20369;-76
2023/09/24 11:24:42;;;;;;;10.23;4.25;;;;;;;;;;6185587;23;20012;-75
2023/09/24 11:27:08;;;;;;;5.60;4.03;;;;;;;;;;6211868;23;20012;-77
2023/09/24 11:29:34;;;;;;;10.55;4.70;;;;;;;;;;6211846;23;20012;-76
2023/09/24 11:32:01;;;;;;;8.18;4.18;;;;;;;;;;6185579;23;20473;-76
2023/09/24 11:34:29;;;;;;;6.82;4.15;;;;;;;;;;6160538;23;20013;-76
2023/09/24 11:36:55;;;;;;;10.35;4.10;;;;;;;;;;6160225;23;20012;-76
2023/09/24 11:39:22;;;;;;;6.47;4.47;;;;;;;;;;6185101;23;20008;-77
2023/09/24 11:41:48;;;;;;;7.47;4.10;;;;;;;;;;6184928;23;20016;-77
2023/09/24 11:44:16;;;;;;;8.35;4.00;;;;;;;;;;6211307;23;20472;-76
2023/09/24 11:46:43;;;;;;;5.80;3.65;;;;;;;;;;6186394;23;20047;-74
2023/09/24 11:49:09;;;;;;;15.02;4.20;;;;;;;;;;6212239;23;20461;-73
2023/09/24 11:51:35;;;;;;;6.60;4.05;;;;;;;;;;6161829;23;20127;-73
2023/09/24 11:54:02;;;;;;;14.27;4.45;;;;;;;;;;6186304;23;20017;-73
2023/09/24 11:56:29;;;;;;;9.32;4.13;;;;;;;;;;6187111;23;20082;-74
2023/09/24 11:58:55;;;;;;;9.13;3.70;;;;;;;;;;6213314;23;20027;-74
2023/09/24 12:01:21;;;;;;;10.23;4.00;;;;;;;;;;6160727;23;20017;-74
2023/09/24 12:03:49;;;;;;;14.93;4.15;;;;;;;;;;6213207;23;20357;-74
2023/09/24 12:06:15;;;;;;;7.10;4.50;;;;;;;;;;6161457;23;20476;-74
2023/09/24 12:08:41;;;;;;;5.90;4.20;;;;;;;;;;6213264;23;20166;-74
2023/09/24 12:11:07;;;;;;;9.15;4.45;;;;;;;;;;6186279;23;20028;-74
2023/09/24 12:13:33;;;;;;;8.00;3.70;;;;;;;;;;6186508;23;20067;-73
2023/09/24 12:15:59;;;;;;;5.93;3.40;;;;;;;;;;6186598;23;20017;-75
2023/09/24 12:18:25;;;;;;;5.30;3.60;;;;;;;;;;6212780;23;20040;-74
2023/09/24 12:20:51;;;;;;;9.85;3.60;;;;;;;;;;6186078;23;20021;-74
2023/09/24 12:23:17;;;;;;;12.40;4.30;;;;;;;;;;6212541;23;20023;-74
2023/09/24 12:25:43;;;;;;;8.20;4.03;;;;;;;;;;6212742;23;20555;-74
2023/09/24 12:28:10;;;;;;;5.78;4.28;;;;;;;;;;6212596;23;20090;-73
2023/09/24 12:30:36;;;;;;;10.30;4.10;;;;;;;;;;6186560;23;20083;-73
2023/09/24 12:33:02;;;;;;;8.85;4.25;;;;;;;;;;6180945;23;20025;-74
2023/09/24 12:35:28;;;;;;;10.35;3.72;;;;;;;;;;6182470;23;20009;-73
2023/09/24 12:37:54;;;;;;;10.85;4.28;;;;;;;;;;6181395;23;20035;-73
2023/09/24 12:40:21;;;;;;;14.23;4.20;;;;;;;;;;6182260;23;20017;-75
2023/09/24 12:42:48;;;;;;;9.52;4.30;;;;;;;;;;6180742;23;20021;-74
2023/09/24 12:45:14;;;;;;;10.10;4.20;;;;;;;;;;6180537;23;20013;-74
2023/09/24 12:47:40;;;;;;;6.97;4.28;;;;;;;;;;6156440;23;20021;-73
2023/09/24 12:50:07;;;;;;;6.47;3.88;;;;;;;;;;6156357;23;20013;-74
2023/09/24 12:52:39;;;;;;;7.88;3.97;;;;;;;;;;6181088;23;20019;-74
2023/09/24 12:55:07;;;;;;;9.77;3.83;;;;;;;;;;6182607;23;20019;-74
2023/09/24 12:57:33;;;;;;;7.00;3.60;;;;;;;;;;6183932;23;20393;-74
2023/09/24 13:00:00;;;;;;;4.85;3.67;;;;;;;;;;6183327;23;20413;-74
2023/09/24 13:02:26;;;;;;;6.63;3.67;;;;;;;;;;6132395;23;20358;-74
2023/09/24 13:04:52;;;;;;;8.30;4.22;;;;;;;;;;6157012;23;20020;-73
2023/09/24 13:07:19;;;;;;;5.78;4.05;;;;;;;;;;6182849;23;20573;-74
2023/09/24 13:09:45;;;;;;;5.53;4.10;;;;;;;;;;6181460;23;20552;-74
2023/09/24 13:12:12;;;;;;;12.88;3.67;;;;;;;;;;6182733;23;20021;-74
2023/09/24 13:14:38;;;;;;;10.93;4.10;;;;;;;;;;6182593;23;20013;-73
2023/09/24 13:17:04;;;;;;;5.60;3.80;;;;;;;;;;6181370;23;20024;-74
2023/09/24 13:19:30;;;;;;;13.70;4.50;;;;;;;;;;6182169;23;20016;-75
2023/09/24 13:21:56;;;;;;;6.35;4.05;;;;;;;;;;6182338;23;20525;-74
2023/09/24 13:24:22;;;;;;;8.82;3.70;;;;;;;;;;6181926;23;20013;-74
2023/09/24 13:26:48;;;;;;;5.18;3.85;;;;;;;;;;6180871;23;20095;-73
2023/09/24 13:29:14;;;;;;;6.70;3.50;;;;;;;;;;6181918;23;20132;-74
2023/09/24 13:31:40;;;;;;;6.97;3.72;;;;;;;;;;6184751;23;20092;-74
2023/09/24 13:34:07;;;;;;;12.07;3.95;;;;;;;;;;6161000;23;20425;-74
2023/09/24 13:36:33;;;;;;;9.90;3.88;;;;;;;;;;6185568;23;20039;-74
2023/09/24 13:38:59;;;;;;;20.90;4.22;;;;;;;;;;6185886;23;20357;-74
2023/09/24 13:41:28;;;;;;;4.55;3.75;;;;;;;;;;6211763;23;20022;-74
2023/09/24 13:43:54;;;;;;;10.35;4.18;;;;;;;;;;6212247;23;20067;-74
2023/09/24 13:46:21;;;;;;;12.55;6.55;;;;;;;;;;6185341;23;20020;-74
2023/09/24 13:48:48;;;;;;;17.20;7.75;;;;;;;;;;6185420;23;20481;-73
2023/09/24 13:51:13;;;;;;;10.02;4.13;;;;;;;;;;6160338;23;20016;-74
2023/09/24 13:53:39;;;;;;;4.65;3.80;;;;;;;;;;6185464;23;20013;-73
2023/09/24 13:56:15;;;;;;;8.90;4.20;;;;;;;;;;6186160;23;20016;-74
2023/09/24 13:58:41;;;;;;;6.82;3.50;;;;;;;;;;6213638;23;20020;-74
2023/09/24 14:01:07;;;;;;;11.38;5.65;;;;;;;;;;6214967;23;20021;-73
2023/09/24 14:03:34;;;;;;;8.32;4.30;;;;;;;;;;6164873;23;20013;-74
2023/09/24 14:06:00;;;;;;;4.45;4.05;;;;;;;;;;6162508;23;20008;-73
2023/09/24 14:14:04;;;;;;;6.88;4.18;;;;;;;;;;6185074;23;20100;-73
2023/09/24 14:16:31;;;;;;;7.03;4.18;;;;;;;;;;6211372;23;20052;-73
2023/09/24 14:18:57;;;;;;;6.68;4.65;;;;;;;;;;6211601;23;20422;-74
2023/09/24 14:21:23;;;;;;;6.72;4.45;;;;;;;;;;6184097;23;20043;-74
2023/09/24 14:23:49;;;;;;;9.65;4.60;;;;;;;;;;6211517;23;20543;-73
2023/09/24 14:26:15;;;;;;;9.32;4.47;;;;;;;;;;6210432;23;20088;-74
2023/09/24 14:28:41;;;;;;;7.90;4.50;;;;;;;;;;6184592;23;20040;-74
2023/09/24 14:31:07;;;;;;;10.82;4.97;;;;;;;;;;6211916;23;20048;-74
2023/09/24 14:33:34;;;;;;;12.98;4.22;;;;;;;;;;6179401;23;20366;-74
2023/09/24 14:36:00;;;;;;;10.07;3.78;;;;;;;;;;6181522;23;20017;-74
2023/09/24 14:38:26;;;;;;;14.40;4.68;;;;;;;;;;6180220;23;20013;-73
2023/09/24 14:40:56;;;;;;;10.88;4.68;;;;;;;;;;6154655;23;20013;-73
2023/09/24 14:43:26;;;;;;;11.93;4.80;;;;;;;;;;6179827;23;20024;-74
2023/09/24 14:45:59;;;;;;;11.30;4.70;;;;;;;;;;6181418;23;20009;-74
2023/09/24 14:48:25;;;;;;;15.25;4.60;;;;;;;;;;6181244;23;20017;-74
2023/09/24 14:50:53;;;;;;;13.43;4.15;;;;;;;;;;6179774;23;20166;-73
2023/09/24 14:53:20;;;;;;;16.08;5.00;;;;;;;;;;6179521;23;20076;-73
2023/09/24 14:55:47;;;;;;;15.77;4.30;;;;;;;;;;6181480;23;20088;-74
2023/09/24 14:58:13;;;;;;;14.55;4.40;;;;;;;;;;6180009;23;20071;-74
2023/09/24 15:00:39;;;;;;;19.35;4.60;;;;;;;;;;6182241;23;20020;-74
2023/09/24 15:03:05;;;;;;;5.93;3.83;;;;;;;;;;6180652;23;20032;-74
2023/09/24 15:05:31;;;;;;;13.05;4.07;;;;;;;;;;6181361;23;20016;-74
2023/09/24 15:07:58;;;;;;;15.70;4.82;;;;;;;;;;6181400;23;20020;-73
2023/09/24 15:10:24;;;;;;;11.98;5.00;;;;;;;;;;6181125;23;20017;-74
2023/09/24 15:12:52;;;;;;;18.38;4.65;;;;;;;;;;6180039;23;20013;-74
2023/09/24 15:15:18;;;;;;;10.52;4.95;;;;;;;;;;6154818;23;20016;-74
2023/09/24 15:17:45;;;;;;;10.93;4.50;;;;;;;;;;6179939;23;20012;-73
2023/09/24 15:20:13;;;;;;;8.68;3.58;;;;;;;;;;6179967;23;20013;-73
2023/09/24 15:22:40;;;;;;;16.45;4.40;;;;;;;;;;6181157;23;20362;-74
2023/09/24 15:25:06;;;;;;;13.65;4.07;;;;;;;;;;6179992;23;20017;-73
2023/09/24 15:27:32;;;;;;;13.15;4.20;;;;;;;;;;6181266;23;20013;-73
2023/09/24 15:29:58;;;;;;;11.70;3.92;;;;;;;;;;6181355;23;20088;-74
2023/09/24 15:32:24;;;;;;;21.63;5.13;;;;;;;;;;6192745;23;20051;-74
2023/09/24 15:34:51;;;;;;;9.93;4.43;;;;;;;;;;6184968;23;20016;-74
2023/09/24 15:37:17;;;;;;;7.05;4.53;;;;;;;;;;6185820;23;20461;-74
2023/09/24 15:39:44;;;;;;;15.40;4.13;;;;;;;;;;6189208;23;20071;-73
2023/09/24 15:42:10;;;;;;;10.98;4.78;;;;;;;;;;6164526;23;20091;-73
2023/09/24 15:44:36;;;;;;;9.13;4.15;;;;;;;;;;6188224;23;20008;-74
2023/09/24 15:47:02;;;;;;;17.75;4.90;;;;;;;;;;6215866;23;20012;-74
2023/09/24 15:49:32;;;;;;;9.30;3.78;;;;;;;;;;6164841;23;20035;-73
2023/09/24 15:51:58;;;;;;;15.70;4.35;;;;;;;;;;6189840;23;20009;-74
2023/09/24 15:54:24;;;;;;;10.35;4.38;;;;;;;;;;6188709;23;20024;-74
2023/09/24 15:56:50;;;;;;;12.77;4.60;;;;;;;;;;6189450;23;20047;-73
2023/09/24 15:59:16;;;;;;;10.65;4.70;;;;;;;;;;6188792;23;20013;-73
2023/09/24 16:01:48;;;;;;;9.57;4.50;;;;;;;;;;6187687;23;20071;-74
2023/09/24 16:04:17;;;;;;;17.02;4.53;;;;;;;;;;6213877;23;20016;-74
2023/09/24 16:06:43;;;;;;;14.23;5.25;;;;;;;;;;6162009;23;20413;-73
2023/09/24 16:09:09;;;;;;;16.15;4.80;;;;;;;;;;6213172;23;20019;-73
2023/09/24 16:11:35;;;;;;;14.50;4.80;;;;;;;;;;6186152;23;20349;-73
2023/09/24 16:14:04;;;;;;;10.05;4.65;;;;;;;;;;6186108;23;20016;-73
2023/09/24 16:16:30;;;;;;;11.75;4.63;;;;;;;;;;6161096;23;20087;-72
2023/09/24 16:18:57;;;;;;;14.82;4.90;;;;;;;;;;6186792;23;20009;-75
2023/09/24 16:21:23;;;;;;;14.77;5.22;;;;;;;;;;6186077;23;20095;-73
2023/09/24 16:23:49;;;;;;;10.00;4.75;;;;;;;;;;6161313;23;20016;-73
2023/09/24 16:26:15;;;;;;;12.93;5.45;;;;;;;;;;6186141;23;20015;-73
2023/09/24 16:28:41;;;;;;;12.48;5.10;;;;;;;;;;6212362;23;20017;-73
2023/09/24 16:31:08;;;;;;;10.68;5.07;;;;;;;;;;6186186;23;20008;-73
2023/09/24 16:33:34;;;;;;;14.38;5.28;;;;;;;;;;6212402;23;20107;-73
2023/09/24 16:36:04;;;;;;;15.55;6.53;;;;;;;;;;6213043;23;20063;-72
2023/09/24 16:38:30;;;;;;;14.45;5.80;;;;;;;;;;6212687;23;20519;-73
2023/09/24 16:40:57;;;;;;;9.40;5.25;;;;;;;;;;6161264;23;20020;-73
2023/09/24 16:43:23;;;;;;;10.65;6.40;;;;;;;;;;6212656;23;20078;-74
2023/09/24 16:45:49;;;;;;;15.52;6.40;;;;;;;;;;6186012;23;20013;-73
2023/09/24 16:48:15;;;;;;;17.10;5.60;;;;;;;;;;6212609;23;20013;-73
2023/09/24 16:50:41;;;;;;;7.03;4.95;;;;;;;;;;6186318;23;20023;-73
2023/09/24 16:53:07;;;;;;;7.43;5.55;;;;;;;;;;6186092;23;20056;-73
2023/09/24 16:55:36;;;;;;;9.38;5.65;;;;;;;;;;6213185;23;20008;-73
2023/09/24 16:58:03;;;;;;;10.25;5.82;;;;;;;;;;6188732;23;20095;-73
2023/09/24 17:00:29;;;;;;;8.70;5.25;;;;;;;;;;6214747;23;20016;-73
2023/09/24 17:02:55;;;;;;;14.10;6.75;;;;;;;;;;6216106;23;20025;-73
2023/09/24 17:05:21;;;;;;;12.50;6.28;;;;;;;;;;6189506;23;20016;-74
2023/09/24 17:07:50;;;;;;;14.80;6.57;;;;;;;;;;6217503;23;20373;-74
2023/09/24 17:10:16;;;;;;;12.20;6.28;;;;;;;;;;6164691;23;20004;-73
2023/09/24 17:12:44;;;;;;;11.98;5.22;;;;;;;;;;6164883;23;20020;-73
2023/09/24 17:15:10;;;;;;;14.40;6.07;;;;;;;;;;6215679;23;20009;-73
2023/09/24 17:17:36;;;;;;;17.23;6.57;;;;;;;;;;6187781;23;20024;-74
2023/09/24 17:20:04;;;;;;;11.10;6.07;;;;;;;;;;6186313;23;20008;-73
2023/09/24 17:22:30;;;;;;;12.65;6.47;;;;;;;;;;6212050;23;20024;-73
2023/09/24 17:24:56;;;;;;;19.27;7.13;;;;;;;;;;6212581;23;20019;-73
2023/09/24 17:27:22;;;;;;;14.65;7.57;;;;;;;;;;6185768;23;20016;-73
2023/09/24 17:29:48;;;;;;;22.25;8.30;;;;;;;;;;6212616;23;20012;-73
2023/09/24 17:32:14;;;;;;;14.82;7.18;;;;;;;;;;6185728;23;20079;-73
2023/09/24 17:34:40;;;;;;;10.13;7.03;;;;;;;;;;6212213;23;20015;-73
2023/09/24 17:37:06;;;;;;;18.65;6.65;;;;;;;;;;6185828;23;20018;-74
2023/09/24 17:39:32;;;;;;;12.95;6.55;;;;;;;;;;6160103;23;20023;-73
2023/09/24 17:41:58;;;;;;;6.65;5.18;;;;;;;;;;6212218;23;20025;-74
2023/09/24 17:44:24;;;;;;;14.40;5.55;;;;;;;;;;6185589;23;20015;-74
2023/09/24 17:46:51;;;;;;;8.45;5.63;;;;;;;;;;6185392;23;20074;-73
2023/09/24 17:49:17;;;;;;;15.02;5.43;;;;;;;;;;6186258;23;20013;-74
2023/09/24 17:51:43;;;;;;;8.35;5.55;;;;;;;;;;6160537;23;20039;-74
2023/09/24 17:54:12;;;;;;;14.10;5.72;;;;;;;;;;6212048;23;20015;-73
2023/09/24 17:56:39;;;;;;;9.85;5.38;;;;;;;;;;6161129;23;20020;-73
2023/09/24 17:59:06;;;;;;;12.90;5.00;;;;;;;;;;6185648;23;20013;-73
2023/09/24 18:01:32;;;;;;;13.38;5.20;;;;;;;;;;6185741;23;20050;-74
2023/09/24 18:03:59;;;;;;;18.20;5.32;;;;;;;;;;6183669;23;20059;-74
2023/09/24 18:06:25;;;;;;;6.28;4.45;;;;;;;;;;6186071;23;20013;-73
2023/09/24 18:08:51;;;;;;;12.25;4.85;;;;;;;;;;6184262;23;20017;-74
2023/09/24 18:11:17;;;;;;;13.30;5.80;;;;;;;;;;6206952;23;20013;-73
2023/09/24 18:13:44;;;;;;;12.70;5.78;;;;;;;;;;6210465;23;20401;-73
2023/09/24 18:16:10;;;;;;;12.50;5.32;;;;;;;;;;6158234;23;20027;-74
2023/09/24 18:18:36;;;;;;;15.48;6.90;;;;;;;;;;6183353;23;20016;-74
2023/09/24 18:21:03;;;;;;;19.15;5.68;;;;;;;;;;6183995;23;20016;-73
2023/09/24 18:23:29;;;;;;;11.45;5.55;;;;;;;;;;6159114;23;20513;-75
2023/09/24 18:25:55;;;;;;;5.70;4.78;;;;;;;;;;6209536;23;20343;-74
2023/09/24 18:28:21;;;;;;;8.95;4.97;;;;;;;;;;6183794;23;20558;-74
2023/09/24 18:30:48;;;;;;;13.00;4.90;;;;;;;;;;6210495;23;20099;-75
2023/09/24 18:33:15;;;;;;;10.93;5.13;;;;;;;;;;6210550;23;20080;-75
2023/09/24 18:35:41;;;;;;;6.18;5.25;;;;;;;;;;6134808;23;20013;-76
2023/09/24 18:38:07;;;;;;;7.70;5.13;;;;;;;;;;6210804;23;20108;-75
2023/09/24 18:40:37;;;;;;;11.55;5.30;;;;;;;;;;6183152;23;20012;-74
2023/09/24 18:43:03;;;;;;;9.80;4.95;;;;;;;;;;6211091;23;20028;-74
2023/09/24 18:45:30;;;;;;;9.80;5.60;;;;;;;;;;6210407;23;20013;-74
2023/09/24 18:47:57;;;;;;;8.30;5.90;;;;;;;;;;6210681;23;20012;-74
2023/09/24 18:50:23;;;;;;;10.60;5.80;;;;;;;;;;6210106;23;20012;-74
2023/09/24 18:52:49;;;;;;;13.63;6.63;;;;;;;;;;6184024;23;20017;-74
2023/09/24 18:55:15;;;;;;;9.73;6.10;;;;;;;;;;6183767;23;20056;-74
2023/09/24 18:57:41;;;;;;;7.60;6.38;;;;;;;;;;6210554;23;20017;-74
2023/09/24 19:00:14;;;;;;;17.35;6.60;;;;;;;;;;6210277;23;20491;-75